createdAt,value
2018-07-15T05:17:20.714Z,92.10
2018-07-15T05:19:48.860Z,92.10
2018-07-15T05:22:16.876Z,92.30
2018-07-15T05:24:45.010Z,91.70
2018-07-15T05:27:13.152Z,91.50
2018-07-15T05:29:41.409Z,91.80
2018-07-15T05:32:12.971Z,91.60
2018-07-15T05:34:41.054Z,91.30
2018-07-15T05:37:09.003Z,90.40
2018-07-15T05:39:36.955Z,90.70
2018-07-15T05:42:05.027Z,90.10
2018-07-15T05:44:32.874Z,89.60
2018-07-15T05:47:01.037Z,90.40
2018-07-15T05:49:29.246Z,89.10
2018-07-15T05:51:57.407Z,88.60
2018-07-15T05:54:25.328Z,88.10
2018-07-15T05:56:53.459Z,87.40
2018-07-15T05:59:21.533Z,87.40
2018-07-15T06:01:50.756Z,86.80
2018-07-15T06:04:18.672Z,86.60
2018-07-15T06:06:46.737Z,85.30
2018-07-15T06:09:14.588Z,85.30
2018-07-15T06:11:42.664Z,85.50
2018-07-15T06:14:10.772Z,85.30
2018-07-15T06:16:39.001Z,85.10
2018-07-15T06:19:07.747Z,84.50
2018-07-15T06:21:35.759Z,84.20
2018-07-15T06:24:03.587Z,84.60
2018-07-15T06:32:40.992Z,85.20
2018-07-15T06:35:08.998Z,84.10
2018-07-15T06:37:36.818Z,84.10
2018-07-15T06:40:04.979Z,84.00
2018-07-15T06:42:32.909Z,81.80
2018-07-15T06:45:01.021Z,83.00
2018-07-15T06:47:29.108Z,84.00
2018-07-15T06:49:57.179Z,81.80
2018-07-15T06:52:25.082Z,83.10
2018-07-15T06:54:53.055Z,81.40
2018-07-15T06:57:21.336Z,81.20
2018-07-15T06:59:49.326Z,81.40
2018-07-15T07:02:17.458Z,80.70
2018-07-15T07:04:45.505Z,80.90
2018-07-15T07:07:13.531Z,81.40
2018-07-15T07:09:41.386Z,81.00
2018-07-15T07:12:09.256Z,81.10
2018-07-15T07:14:37.329Z,81.20
2018-07-15T07:17:05.576Z,80.20
2018-07-15T07:19:33.595Z,81.90
2018-07-15T07:22:01.412Z,79.10
2018-07-15T07:24:29.359Z,80.10
2018-07-15T07:26:57.273Z,78.20
2018-07-15T07:29:25.305Z,78.30
2018-07-15T07:31:53.156Z,78.30
2018-07-15T07:34:21.184Z,78.70
2018-07-15T07:36:49.146Z,81.60
2018-07-15T07:39:16.961Z,78.70
2018-07-15T07:41:44.732Z,80.10
2018-07-15T07:44:12.556Z,76.50
2018-07-15T07:46:40.765Z,75.80
2018-07-15T07:49:08.559Z,75.10
2018-07-15T07:51:36.448Z,76.70
2018-07-15T07:54:04.295Z,76.00
2018-07-15T07:56:32.382Z,77.00
2018-07-15T07:59:00.946Z,77.20
2018-07-15T08:01:28.866Z,77.50
2018-07-15T08:03:56.652Z,74.90
2018-07-15T08:06:24.628Z,76.90
2018-07-15T08:08:52.650Z,75.10
2018-07-15T08:11:21.847Z,75.30
2018-07-15T08:13:50.069Z,73.60
2018-07-15T08:16:18.198Z,73.40
2018-07-15T08:18:46.185Z,74.40
2018-07-15T08:21:14.023Z,72.20
2018-07-15T08:23:41.982Z,74.10
2018-07-15T08:26:09.821Z,73.30
2018-07-15T08:28:38.534Z,73.10
2018-07-15T08:31:19.557Z,73.30
2018-07-15T08:33:48.343Z,73.20
2018-07-15T08:36:16.264Z,70.60
2018-07-15T08:38:44.512Z,71.40
2018-07-15T08:41:12.306Z,73.50
2018-07-15T08:43:41.890Z,74.90
2018-07-15T08:46:10.465Z,74.60
2018-07-15T08:48:38.451Z,68.00
2018-07-15T08:51:06.764Z,70.40
2018-07-15T08:53:34.690Z,69.20
2018-07-15T08:56:02.713Z,68.30
2018-07-15T08:58:30.585Z,68.00
2018-07-15T09:00:59.452Z,66.80
2018-07-15T09:03:27.671Z,68.30
2018-07-15T09:05:58.356Z,66.60
2018-07-15T09:08:26.133Z,66.70
2018-07-15T09:10:55.093Z,64.30
2018-07-15T09:13:23.552Z,64.60
2018-07-15T09:15:53.505Z,64.60
2018-07-15T09:18:22.220Z,63.90
2018-07-15T09:20:50.102Z,61.00
2018-07-15T09:23:17.883Z,61.90
2018-07-15T09:25:45.858Z,62.70
2018-07-15T09:28:13.639Z,64.30
2018-07-15T09:30:41.413Z,64.60
2018-07-15T09:33:09.356Z,64.60
2018-07-15T09:35:37.367Z,63.10
2018-07-15T09:38:06.485Z,65.40
2018-07-15T09:40:34.747Z,64.40
2018-07-15T09:43:02.675Z,62.40
2018-07-15T09:45:30.965Z,61.80
2018-07-15T09:47:58.837Z,62.00
2018-07-15T09:50:26.690Z,59.60
2018-07-15T09:52:54.594Z,63.80
2018-07-15T09:55:22.578Z,65.00
2018-07-15T09:57:50.450Z,62.20
2018-07-15T10:00:23.861Z,61.20
2018-07-15T10:02:52.329Z,62.60
2018-07-15T10:05:20.239Z,65.30
2018-07-15T10:07:48.111Z,58.60
2018-07-15T10:10:16.232Z,57.70
2018-07-15T10:12:46.596Z,58.90
2018-07-15T10:15:14.559Z,57.60
2018-07-15T10:17:42.469Z,59.60
2018-07-15T10:20:11.354Z,57.40
2018-07-15T10:22:42.933Z,57.50
2018-07-15T10:25:10.936Z,56.90
2018-07-15T10:27:38.899Z,61.40
2018-07-15T10:30:07.052Z,59.00
2018-07-15T10:32:34.822Z,61.30
2018-07-15T10:35:02.736Z,57.40
2018-07-15T10:37:30.584Z,57.90
2018-07-15T10:39:58.425Z,58.00
2018-07-15T10:42:26.332Z,56.10
2018-07-15T10:44:54.182Z,54.90
2018-07-15T10:47:21.923Z,56.70
2018-07-15T10:49:53.102Z,55.10
2018-07-15T10:52:21.843Z,58.50
2018-07-15T10:54:49.874Z,53.30
2018-07-15T10:57:17.795Z,56.90
2018-07-15T10:59:45.768Z,60.40
2018-07-15T11:02:13.831Z,54.80
2018-07-15T11:04:41.873Z,56.20
2018-07-15T11:07:09.753Z,56.50
2018-07-15T11:09:37.496Z,54.80
2018-07-15T11:12:05.581Z,56.60
2018-07-15T11:14:33.439Z,58.20
2018-07-15T11:17:02.236Z,57.20
2018-07-15T11:19:30.144Z,53.40
2018-07-15T11:21:57.907Z,53.50
2018-07-15T11:24:25.897Z,54.20
2018-07-15T11:26:53.672Z,52.20
2018-07-15T11:29:21.421Z,53.10
2018-07-15T11:31:49.330Z,53.90
2018-07-15T11:34:17.218Z,54.70
2018-07-15T11:36:45.094Z,57.20
2018-07-15T11:39:12.902Z,54.80
2018-07-15T11:41:41.123Z,54.00
2018-07-15T11:44:09.036Z,52.20
2018-07-15T11:46:37.132Z,54.10
2018-07-15T11:49:05.458Z,54.10
2018-07-15T11:51:33.466Z,53.20
2018-07-15T11:54:01.522Z,54.60
2018-07-15T11:56:29.366Z,56.50
2018-07-15T11:58:57.070Z,54.30
2018-07-15T12:01:24.957Z,51.80
2018-07-15T12:03:52.849Z,52.70
2018-07-15T12:06:20.661Z,54.00
2018-07-15T12:08:48.457Z,51.70
2018-07-15T12:11:16.220Z,51.10
2018-07-15T12:13:44.005Z,53.90
2018-07-15T12:16:11.745Z,49.10
2018-07-15T12:18:39.545Z,49.70
2018-07-15T12:21:09.071Z,53.10
2018-07-15T12:23:36.855Z,52.90
2018-07-15T12:26:06.473Z,49.80
2018-07-15T12:28:34.281Z,49.60
2018-07-15T12:31:02.175Z,53.70
2018-07-15T12:33:30.159Z,48.80
2018-07-15T12:35:58.648Z,50.00
2018-07-15T12:38:26.541Z,47.60
2018-07-15T12:40:56.733Z,48.00
2018-07-15T12:43:24.776Z,52.30
2018-07-15T12:45:55.508Z,51.00
2018-07-15T12:48:23.333Z,51.50
2018-07-15T12:50:51.210Z,49.10
2018-07-15T12:53:18.965Z,47.30
2018-07-15T12:55:46.789Z,50.10
2018-07-15T12:58:14.574Z,50.00
2018-07-15T13:00:42.570Z,50.90
2018-07-15T13:03:10.429Z,49.00
2018-07-15T13:05:38.545Z,48.90
2018-07-15T13:08:06.401Z,51.40
2018-07-15T13:10:34.172Z,47.80
2018-07-15T13:13:02.198Z,48.60
2018-07-15T13:15:29.913Z,47.40
2018-07-15T13:17:57.742Z,47.60
2018-07-15T13:20:27.052Z,45.90
2018-07-15T13:22:54.958Z,46.10
2018-07-15T13:25:23.053Z,47.00
2018-07-15T13:27:51.026Z,46.90
2018-07-15T13:30:18.824Z,45.60
2018-07-15T13:32:46.556Z,46.90
2018-07-15T13:35:14.411Z,47.30
2018-07-15T13:37:42.177Z,48.30
2018-07-15T13:40:09.898Z,49.60
2018-07-15T13:42:37.815Z,49.00
2018-07-15T13:45:05.787Z,47.30
2018-07-15T13:47:35.320Z,45.70
2018-07-15T13:50:08.372Z,48.10
2018-07-15T13:52:36.283Z,49.60
2018-07-15T13:55:04.379Z,48.80
2018-07-15T13:57:32.340Z,46.60
2018-07-15T14:00:00.231Z,46.40
2018-07-15T14:02:28.005Z,47.60
2018-07-15T14:04:55.943Z,46.50
2018-07-15T14:07:23.651Z,45.60
2018-07-15T14:09:51.670Z,48.80
2018-07-15T14:12:19.530Z,46.50
2018-07-15T14:14:47.687Z,46.70
2018-07-15T14:17:15.961Z,43.00
2018-07-15T14:19:43.789Z,46.80
2018-07-15T14:22:11.601Z,47.00
2018-07-15T14:24:39.404Z,43.20
2018-07-15T14:27:07.163Z,46.30
2018-07-15T14:29:35.096Z,45.40
2018-07-15T14:32:02.867Z,44.90
2018-07-15T14:34:30.921Z,45.50
2018-07-15T14:36:58.739Z,47.50
2018-07-15T14:39:32.424Z,45.80
2018-07-15T14:42:00.183Z,45.20
2018-07-15T14:44:29.996Z,45.30
2018-07-15T14:46:58.079Z,47.10
2018-07-15T14:49:25.794Z,46.70
2018-07-15T14:51:53.892Z,46.90
2018-07-15T14:54:26.264Z,47.60
2018-07-15T14:56:54.369Z,47.60
2018-07-15T14:59:22.285Z,47.30
2018-07-15T15:01:50.327Z,46.40
2018-07-15T15:06:46.065Z,46.60
2018-07-15T15:09:13.858Z,48.50
2018-07-15T15:11:41.813Z,46.80
2018-07-15T15:14:09.971Z,46.00
2018-07-15T15:16:37.733Z,46.20
2018-07-15T15:19:05.919Z,48.50
2018-07-15T15:21:33.928Z,47.00
2018-07-15T15:24:01.664Z,47.60
2018-07-15T15:26:29.460Z,50.00
2018-07-15T15:28:57.224Z,48.20
2018-07-15T15:31:25.169Z,49.00
2018-07-15T15:33:52.906Z,50.30
2018-07-15T15:36:20.866Z,49.60
2018-07-15T15:38:48.617Z,51.10
2018-07-15T15:41:16.564Z,50.80
2018-07-15T15:43:44.379Z,49.10
2018-07-15T15:46:12.211Z,50.00
2018-07-15T15:48:39.964Z,48.40
2018-07-15T15:51:08.132Z,48.30
2018-07-15T15:53:40.546Z,49.80
2018-07-15T15:56:08.526Z,49.60
2018-07-15T15:58:36.555Z,49.30
2018-07-15T16:01:04.418Z,47.60
2018-07-15T16:03:32.235Z,47.60
2018-07-15T16:06:00.112Z,46.80
2018-07-15T16:08:27.931Z,46.50
2018-07-15T16:10:55.724Z,47.90
2018-07-15T16:13:23.659Z,46.30
2018-07-15T16:15:51.507Z,48.00
2018-07-15T16:18:19.457Z,47.90
2018-07-15T16:20:47.155Z,47.50
2018-07-15T16:23:15.078Z,47.00
2018-07-15T16:25:42.940Z,48.40
2018-07-15T16:28:10.899Z,49.60
2018-07-15T16:30:38.667Z,49.80
2018-07-15T16:33:07.406Z,48.00
2018-07-15T16:35:35.401Z,46.70
2018-07-15T16:38:03.258Z,47.30
2018-07-15T16:40:31.184Z,48.00
2018-07-15T16:42:59.009Z,47.00
2018-07-15T16:45:26.826Z,47.20
2018-07-15T16:47:54.930Z,46.70
2018-07-15T16:50:22.761Z,47.50
2018-07-15T16:52:50.863Z,47.60
2018-07-15T16:55:18.823Z,47.20
2018-07-15T16:57:50.187Z,49.20
2018-07-15T17:00:17.941Z,48.00
2018-07-15T17:02:45.903Z,48.40
2018-07-15T17:05:13.779Z,50.90
2018-07-15T17:07:41.787Z,51.90
2018-07-15T17:10:10.099Z,49.20
2018-07-15T17:12:38.200Z,49.90
2018-07-15T17:15:06.258Z,49.90
2018-07-15T17:17:34.175Z,51.20
2018-07-15T17:20:02.463Z,50.90
2018-07-15T17:22:37.659Z,50.60
2018-07-15T17:25:05.877Z,48.80
2018-07-15T17:27:33.836Z,50.10
2018-07-15T17:30:01.861Z,50.10
2018-07-15T17:32:29.712Z,48.70
2018-07-15T17:35:02.042Z,50.30
2018-07-15T17:37:29.894Z,48.20
2018-07-15T17:39:57.674Z,48.70
2018-07-15T17:42:25.614Z,50.30
2018-07-15T17:44:53.488Z,49.90
2018-07-15T17:47:21.237Z,49.80
2018-07-15T17:49:49.024Z,50.30
2018-07-15T17:52:17.204Z,51.10
2018-07-15T17:54:45.480Z,50.10
2018-07-15T17:57:13.238Z,50.70
2018-07-15T17:59:41.115Z,52.30
2018-07-15T18:02:08.920Z,51.50
2018-07-15T18:04:36.918Z,52.00
2018-07-15T18:07:04.735Z,52.20
2018-07-15T18:09:32.695Z,53.80
2018-07-15T18:12:00.429Z,51.60
2018-07-15T18:14:29.106Z,52.50
2018-07-15T18:16:56.974Z,53.30
2018-07-15T18:19:24.763Z,53.60
2018-07-15T18:21:53.932Z,54.20
2018-07-15T18:24:21.858Z,52.60
2018-07-15T18:26:49.739Z,54.00
2018-07-15T18:29:17.701Z,55.00
2018-07-15T18:31:45.653Z,55.00
2018-07-15T18:34:14.106Z,54.80
2018-07-15T18:36:42.544Z,54.70
2018-07-15T18:39:10.525Z,55.00
2018-07-15T18:41:38.286Z,55.50
2018-07-15T18:44:06.248Z,55.60
2018-07-15T18:46:34.091Z,56.40
2018-07-15T18:49:01.981Z,56.00
2018-07-15T18:51:29.925Z,56.30
2018-07-15T18:53:57.734Z,56.80
2018-07-15T18:56:25.470Z,57.30
2018-07-15T18:59:43.214Z,57.60
